createdAt,value
2023-04-04T00:00:49.339Z,94879.00
2023-04-04T00:01:49.378Z,94881.00
2023-04-04T00:02:49.558Z,94885.00
2023-04-04T00:03:49.726Z,94885.00
2023-04-04T00:04:49.523Z,94883.00
2023-04-04T00:05:49.551Z,94881.00
2023-04-04T00:06:49.588Z,94883.00
2023-04-04T00:07:49.584Z,94879.00
2023-04-04T00:08:49.618Z,94881.00
2023-04-04T00:09:49.646Z,94877.00
2023-04-04T00:10:49.682Z,94879.00
2023-04-04T00:11:49.690Z,94877.00
2023-04-04T00:12:50.210Z,94879.00
2023-04-04T00:13:49.738Z,94879.00
2023-04-04T00:14:49.769Z,94881.00
2023-04-04T00:15:49.800Z,94881.00
2023-04-04T00:16:49.778Z,94879.00
2023-04-04T00:17:49.862Z,94879.00
2023-04-04T00:18:49.843Z,94881.00
2023-04-04T00:19:49.831Z,94879.00
2023-04-04T00:20:49.834Z,94879.00
2023-04-04T00:21:49.846Z,94877.00
2023-04-04T00:22:49.858Z,94881.00
2023-04-04T00:23:49.880Z,94879.00
2023-04-04T00:24:49.871Z,94881.00
2023-04-04T00:25:49.879Z,94879.00
2023-04-04T00:26:49.884Z,94875.00
2023-04-04T00:27:49.887Z,94875.00
2023-04-04T00:28:49.954Z,94875.00
2023-04-04T00:29:49.930Z,94873.00
2023-04-04T00:30:49.970Z,94873.00
2023-04-04T00:31:50.037Z,94873.00
2023-04-04T00:32:50.039Z,94871.00
2023-04-04T00:33:49.986Z,94873.00
2023-04-04T00:34:49.997Z,94871.00
2023-04-04T00:35:50.028Z,94869.00
2023-04-04T00:36:50.015Z,94871.00
2023-04-04T00:37:50.028Z,94871.00
2023-04-04T00:38:50.046Z,94869.00
2023-04-04T00:39:50.306Z,94869.00
2023-04-04T00:40:50.081Z,94871.00
2023-04-04T00:41:50.106Z,94873.00
2023-04-04T00:42:50.126Z,94871.00
2023-04-04T00:43:50.153Z,94869.00
2023-04-04T00:44:50.136Z,94867.00
2023-04-04T00:45:50.205Z,94867.00
2023-04-04T00:46:50.130Z,94865.00
2023-04-04T00:47:50.211Z,94867.00
2023-04-04T00:48:50.152Z,94867.00
2023-04-04T00:49:50.171Z,94865.00
2023-04-04T00:50:50.165Z,94865.00
2023-04-04T00:51:50.175Z,94863.00
2023-04-04T00:52:50.194Z,94863.00
2023-04-04T00:53:50.180Z,94865.00
2023-04-04T00:54:50.238Z,94859.00
2023-04-04T00:55:50.297Z,94863.00
2023-04-04T00:56:50.324Z,94859.00
2023-04-04T00:57:50.375Z,94861.00
2023-04-04T00:58:50.463Z,94863.00
2023-04-04T00:59:50.453Z,94861.00
2023-04-04T01:00:50.655Z,94861.00
2023-04-04T01:01:50.548Z,94863.00
2023-04-04T01:02:50.581Z,94861.00
2023-04-04T01:03:50.635Z,94861.00
2023-04-04T01:04:50.651Z,94861.00
2023-04-04T01:05:50.697Z,94859.00
2023-04-04T01:06:50.741Z,94859.00
2023-04-04T01:07:50.744Z,94861.00
2023-04-04T01:08:50.734Z,94859.00
2023-04-04T01:09:50.746Z,94857.00
2023-04-04T01:10:50.743Z,94855.00
2023-04-04T01:11:50.744Z,94855.00
2023-04-04T01:12:50.742Z,94853.00
2023-04-04T01:13:50.792Z,94852.00
2023-04-04T01:14:50.824Z,94855.00
2023-04-04T01:15:50.786Z,94852.00
2023-04-04T01:16:50.897Z,94853.00
2023-04-04T01:17:50.827Z,94850.00
2023-04-04T01:18:50.805Z,94850.00
2023-04-04T01:19:50.795Z,94850.00
2023-04-04T01:20:50.790Z,94850.00
2023-04-04T01:21:50.777Z,94850.00
2023-04-04T01:22:50.775Z,94848.00
2023-04-04T01:23:50.779Z,94852.00
2023-04-04T01:24:50.790Z,94852.00
2023-04-04T01:25:50.774Z,94850.00
2023-04-04T01:26:50.767Z,94848.00
2023-04-04T01:27:50.754Z,94850.00
2023-04-04T01:28:50.765Z,94852.00
2023-04-04T01:29:50.745Z,94852.00
2023-04-04T01:30:50.815Z,94852.00
2023-04-04T01:31:50.770Z,94850.00
2023-04-04T01:32:50.817Z,94852.00
2023-04-04T01:33:50.749Z,94852.00
2023-04-04T01:34:50.780Z,94848.00
2023-04-04T01:35:50.830Z,94848.00
2023-04-04T01:36:50.819Z,94848.00
2023-04-04T01:37:50.825Z,94848.00
2023-04-04T01:38:50.838Z,94848.00
2023-04-04T01:39:50.857Z,94850.00
2023-04-04T01:40:50.879Z,94846.00
2023-04-04T01:41:50.860Z,94846.00
2023-04-04T01:42:50.873Z,94846.00
2023-04-04T01:43:50.879Z,94844.00
2023-04-04T01:44:50.890Z,94844.00
2023-04-04T01:45:50.918Z,94844.00
2023-04-04T01:46:50.918Z,94844.00
2023-04-04T01:47:50.997Z,94842.00
2023-04-04T01:48:50.930Z,94842.00
2023-04-04T01:49:50.967Z,94844.00
2023-04-04T01:50:50.974Z,94842.00
2023-04-04T01:51:51.001Z,94842.00
2023-04-04T01:52:50.986Z,94838.00
2023-04-04T01:53:51.014Z,94838.00
2023-04-04T01:54:50.994Z,94836.00
2023-04-04T01:55:50.986Z,94836.00
2023-04-04T01:56:50.978Z,94836.00
2023-04-04T01:57:50.992Z,94836.00
2023-04-04T01:58:51.032Z,94836.00
2023-04-04T01:59:50.996Z,94836.00
2023-04-04T02:00:50.981Z,94836.00
2023-04-04T02:01:51.034Z,94836.00
2023-04-04T02:02:51.020Z,94836.00
2023-04-04T02:03:51.039Z,94836.00
2023-04-04T02:04:50.988Z,94836.00
2023-04-04T02:05:50.996Z,94836.00
2023-04-04T02:06:50.981Z,94836.00
2023-04-04T02:07:50.973Z,94838.00
2023-04-04T02:08:50.970Z,94838.00
2023-04-04T02:09:50.963Z,94840.00
2023-04-04T02:10:50.946Z,94840.00
2023-04-04T02:11:50.970Z,94836.00
2023-04-04T02:12:50.935Z,94838.00
2023-04-04T02:13:50.953Z,94838.00
2023-04-04T02:14:51.061Z,94838.00
2023-04-04T02:15:50.987Z,94836.00
2023-04-04T02:16:50.957Z,94840.00
2023-04-04T02:17:50.954Z,94840.00
2023-04-04T02:18:50.947Z,94836.00
2023-04-04T02:19:50.933Z,94836.00
2023-04-04T02:20:50.950Z,94834.00
2023-04-04T02:21:50.954Z,94834.00
2023-04-04T02:22:50.952Z,94834.00
2023-04-04T02:23:50.938Z,94832.00
2023-04-04T02:24:50.941Z,94834.00
2023-04-04T02:25:50.954Z,94834.00
2023-04-04T02:26:50.937Z,94832.00
2023-04-04T02:27:50.944Z,94832.00
2023-04-04T02:28:50.922Z,94828.00
2023-04-04T02:29:50.923Z,94832.00
2023-04-04T02:30:50.961Z,94832.00
2023-04-04T02:31:50.912Z,94826.00
2023-04-04T02:32:50.927Z,94826.00
2023-04-04T02:33:50.932Z,94830.00
2023-04-04T02:34:50.907Z,94822.00
2023-04-04T02:35:50.991Z,94824.00
2023-04-04T02:36:50.919Z,94820.00
2023-04-04T02:37:50.928Z,94828.00
2023-04-04T02:38:50.926Z,94826.00
2023-04-04T02:39:50.922Z,94822.00
2023-04-04T02:40:50.926Z,94822.00
2023-04-04T02:41:50.908Z,94822.00
2023-04-04T02:42:50.898Z,94822.00
2023-04-04T02:43:50.909Z,94824.00
2023-04-04T02:44:50.919Z,94822.00
2023-04-04T02:45:50.946Z,94822.00
2023-04-04T02:46:50.952Z,94820.00
2023-04-04T02:47:50.959Z,94820.00
2023-04-04T02:48:50.897Z,94820.00
2023-04-04T02:49:50.924Z,94822.00
2023-04-04T02:50:50.932Z,94824.00
2023-04-04T02:51:50.909Z,94822.00
2023-04-04T02:52:50.909Z,94818.00
2023-04-04T02:53:50.906Z,94816.00
2023-04-04T02:54:50.907Z,94814.00
2023-04-04T02:55:50.932Z,94816.00
2023-04-04T02:56:50.949Z,94816.00
2023-04-04T02:57:50.923Z,94812.00
2023-04-04T02:58:50.955Z,94812.00
2023-04-04T02:59:50.952Z,94812.00
2023-04-04T03:00:50.981Z,94812.00
2023-04-04T03:01:50.970Z,94812.00
2023-04-04T03:02:51.004Z,94810.00
2023-04-04T03:03:51.044Z,94810.00
2023-04-04T03:04:50.932Z,94808.00
2023-04-04T03:05:50.946Z,94810.00
2023-04-04T03:06:50.931Z,94810.00
2023-04-04T03:07:50.931Z,94808.00
2023-04-04T03:08:50.967Z,94808.00
2023-04-04T03:09:50.939Z,94806.00
2023-04-04T03:10:50.968Z,94805.00
2023-04-04T03:11:50.958Z,94808.00
2023-04-04T03:12:51.015Z,94806.00
2023-04-04T03:13:51.090Z,94806.00
2023-04-04T03:14:51.122Z,94805.00
2023-04-04T03:15:51.181Z,94803.00
2023-04-04T03:16:51.290Z,94801.00
2023-04-04T03:17:51.266Z,94803.00
2023-04-04T03:18:51.269Z,94803.00
2023-04-04T03:19:51.273Z,94801.00
2023-04-04T03:20:51.319Z,94803.00
2023-04-04T03:21:51.273Z,94805.00
2023-04-04T03:22:51.277Z,94806.00
2023-04-04T03:23:51.281Z,94806.00
2023-04-04T03:24:51.305Z,94810.00
2023-04-04T03:25:51.308Z,94806.00
2023-04-04T03:26:51.286Z,94810.00
2023-04-04T03:27:51.296Z,94808.00
2023-04-04T03:28:51.292Z,94808.00
2023-04-04T03:29:51.297Z,94810.00
2023-04-04T03:30:51.329Z,94806.00
2023-04-04T03:31:51.395Z,94810.00
2023-04-04T03:32:51.365Z,94808.00
2023-04-04T03:33:51.333Z,94808.00
2023-04-04T03:34:51.331Z,94810.00
2023-04-04T03:35:51.368Z,94810.00
2023-04-04T03:36:51.345Z,94812.00
2023-04-04T03:37:51.329Z,94810.00
2023-04-04T03:38:51.338Z,94812.00
2023-04-04T03:39:51.363Z,94812.00
2023-04-04T03:40:51.363Z,94812.00
2023-04-04T03:41:51.316Z,94812.00
2023-04-04T03:42:51.323Z,94814.00
2023-04-04T03:43:51.350Z,94814.00
2023-04-04T03:44:51.347Z,94816.00
2023-04-04T03:45:51.401Z,94818.00
2023-04-04T03:46:51.370Z,94820.00
2023-04-04T03:47:51.408Z,94818.00
2023-04-04T03:48:51.392Z,94820.00
2023-04-04T03:49:51.450Z,94818.00
2023-04-04T03:50:51.494Z,94818.00
2023-04-04T03:51:51.506Z,94818.00
2023-04-04T03:52:51.504Z,94818.00
2023-04-04T03:53:51.522Z,94820.00
2023-04-04T03:54:51.513Z,94820.00
2023-04-04T03:55:52.062Z,94822.00
2023-04-04T03:56:51.540Z,94822.00
2023-04-04T03:57:51.538Z,94822.00
2023-04-04T03:58:51.587Z,94822.00
2023-04-04T03:59:51.563Z,94824.00
2023-04-04T04:00:51.565Z,94824.00
2023-04-04T04:01:51.580Z,94824.00
2023-04-04T04:02:51.625Z,94826.00
2023-04-04T04:03:51.644Z,94826.00
2023-04-04T04:04:51.623Z,94826.00
2023-04-04T04:05:51.640Z,94828.00
2023-04-04T04:06:51.619Z,94830.00
2023-04-04T04:07:51.649Z,94826.00
2023-04-04T04:08:51.664Z,94826.00
2023-04-04T04:09:51.674Z,94826.00
2023-04-04T04:10:51.677Z,94828.00
2023-04-04T04:11:51.677Z,94828.00
2023-04-04T04:12:51.713Z,94830.00
2023-04-04T04:13:51.705Z,94830.00
2023-04-04T04:14:51.735Z,94830.00
2023-04-04T04:15:51.765Z,94828.00
2023-04-04T04:16:51.745Z,94832.00
2023-04-04T04:17:51.818Z,94832.00
2023-04-04T04:18:51.767Z,94832.00
2023-04-04T04:19:51.790Z,94832.00
2023-04-04T04:20:51.784Z,94834.00
2023-04-04T04:21:51.820Z,94834.00
2023-04-04T04:22:54.074Z,94836.00
2023-04-04T04:23:51.946Z,94836.00
2023-04-04T04:24:51.984Z,94836.00
2023-04-04T04:25:51.963Z,94834.00
2023-04-04T04:26:51.978Z,94836.00
2023-04-04T04:27:51.990Z,94836.00
2023-04-04T04:28:51.990Z,94836.00
2023-04-04T04:29:52.001Z,94838.00
2023-04-04T04:30:52.031Z,94838.00
2023-04-04T04:31:52.082Z,94838.00
2023-04-04T04:32:52.068Z,94842.00
2023-04-04T04:33:52.049Z,94840.00
2023-04-04T04:34:52.070Z,94842.00
2023-04-04T04:35:52.096Z,94842.00
2023-04-04T04:36:52.096Z,94844.00
2023-04-04T04:37:52.115Z,94848.00
2023-04-04T04:38:52.111Z,94848.00
2023-04-04T04:39:52.139Z,94848.00
2023-04-04T04:40:52.148Z,94846.00
2023-04-04T04:41:52.149Z,94848.00
2023-04-04T04:42:53.272Z,94848.00
2023-04-04T04:43:52.172Z,94848.00
2023-04-04T04:44:52.245Z,94846.00
2023-04-04T04:45:52.207Z,94848.00
2023-04-04T04:46:52.330Z,94850.00
2023-04-04T04:47:52.281Z,94853.00
2023-04-04T04:48:52.247Z,94853.00
2023-04-04T04:49:52.264Z,94853.00
2023-04-04T04:50:52.273Z,94853.00
2023-04-04T04:51:52.277Z,94855.00
2023-04-04T04:52:52.293Z,94855.00
2023-04-04T04:53:52.310Z,94859.00
2023-04-04T04:54:52.325Z,94857.00
2023-04-04T04:55:52.394Z,94863.00
2023-04-04T04:56:52.353Z,94863.00
2023-04-04T04:57:52.355Z,94865.00
2023-04-04T04:58:52.383Z,94863.00
2023-04-04T04:59:52.369Z,94861.00
2023-04-04T05:00:52.398Z,94863.00
2023-04-04T05:01:52.383Z,94865.00
2023-04-04T05:02:52.460Z,94865.00
2023-04-04T05:03:53.477Z,94865.00
2023-04-04T05:04:52.403Z,94867.00
2023-04-04T05:05:52.421Z,94865.00
2023-04-04T05:06:52.418Z,94869.00
2023-04-04T05:07:52.425Z,94867.00
2023-04-04T05:08:52.408Z,94867.00
2023-04-04T05:09:52.410Z,94865.00
2023-04-04T05:10:52.423Z,94869.00
2023-04-04T05:11:52.428Z,94867.00
2023-04-04T05:12:52.438Z,94869.00
2023-04-04T05:13:52.433Z,94871.00
2023-04-04T05:14:52.436Z,94869.00
2023-04-04T05:15:52.434Z,94867.00
2023-04-04T05:16:52.503Z,94871.00
2023-04-04T05:17:52.600Z,94869.00
2023-04-04T05:18:52.430Z,94871.00
2023-04-04T05:19:52.498Z,94871.00
2023-04-04T05:20:52.455Z,94869.00
2023-04-04T05:21:52.455Z,94869.00
2023-04-04T05:22:52.451Z,94871.00
2023-04-04T05:23:52.437Z,94871.00
2023-04-04T05:24:52.474Z,94871.00
2023-04-04T05:25:52.437Z,94877.00
2023-04-04T05:26:52.455Z,94873.00
2023-04-04T05:27:52.472Z,94877.00
2023-04-04T05:28:52.510Z,94873.00
2023-04-04T05:29:52.512Z,94873.00
2023-04-04T05:30:52.552Z,94871.00
2023-04-04T05:31:52.598Z,94873.00
2023-04-04T05:32:52.704Z,94871.00
2023-04-04T05:33:52.596Z,94871.00
2023-04-04T05:34:52.608Z,94871.00
2023-04-04T05:35:52.676Z,94871.00
2023-04-04T05:36:52.646Z,94871.00
2023-04-04T05:37:52.673Z,94873.00
2023-04-04T05:38:52.717Z,94873.00
2023-04-04T05:39:52.762Z,94875.00
2023-04-04T05:40:52.766Z,94873.00
2023-04-04T05:41:52.795Z,94873.00
2023-04-04T05:42:52.815Z,94873.00
2023-04-04T05:43:52.820Z,94881.00
2023-04-04T05:44:52.838Z,94877.00
2023-04-04T05:45:52.860Z,94879.00
2023-04-04T05:46:52.853Z,94879.00
2023-04-04T05:47:52.919Z,94877.00
2023-04-04T05:48:52.915Z,94881.00
2023-04-04T05:49:52.924Z,94881.00
2023-04-04T05:50:52.952Z,94881.00
2023-04-04T05:51:52.964Z,94881.00
2023-04-04T05:52:52.965Z,94883.00
2023-04-04T05:53:52.966Z,94881.00
2023-04-04T05:54:52.973Z,94881.00
2023-04-04T05:55:52.999Z,94887.00
2023-04-04T05:56:53.052Z,94885.00
2023-04-04T05:57:53.085Z,94885.00
2023-04-04T05:58:53.144Z,94887.00
2023-04-04T05:59:53.102Z,94887.00
2023-04-04T06:00:53.170Z,94889.00
2023-04-04T06:01:53.225Z,94891.00
2023-04-04T06:02:53.346Z,94891.00
2023-04-04T06:03:53.331Z,94892.00
2023-04-04T06:04:53.394Z,94889.00
2023-04-04T06:05:53.499Z,94891.00
2023-04-04T06:06:53.442Z,94889.00
2023-04-04T06:07:53.454Z,94889.00
2023-04-04T06:08:54.168Z,94889.00
2023-04-04T06:09:53.491Z,94891.00
2023-04-04T06:10:53.529Z,94889.00
2023-04-04T06:11:53.581Z,94887.00
2023-04-04T06:12:53.632Z,94887.00
2023-04-04T06:13:53.681Z,94883.00
2023-04-04T06:14:53.742Z,94881.00
2023-04-04T06:15:53.821Z,94881.00
2023-04-04T06:16:53.818Z,94885.00
2023-04-04T06:17:53.894Z,94885.00
2023-04-04T06:18:53.893Z,94885.00
2023-04-04T06:19:53.925Z,94885.00
2023-04-04T06:20:53.957Z,94887.00
2023-04-04T06:21:53.981Z,94887.00
2023-04-04T06:22:54.015Z,94887.00
2023-04-04T06:23:54.036Z,94887.00
2023-04-04T06:24:54.065Z,94889.00
2023-04-04T06:25:54.070Z,94889.00
2023-04-04T06:26:54.096Z,94887.00
2023-04-04T06:27:54.097Z,94883.00
2023-04-04T06:28:54.117Z,94877.00
2023-04-04T06:29:54.154Z,94881.00
2023-04-04T06:30:54.147Z,94879.00
2023-04-04T06:31:54.188Z,94881.00
2023-04-04T06:32:54.205Z,94877.00
2023-04-04T06:33:54.142Z,94881.00
2023-04-04T06:34:54.143Z,94881.00
2023-04-04T06:35:54.157Z,94881.00
2023-04-04T06:36:54.152Z,94881.00
2023-04-04T06:37:55.671Z,94883.00
2023-04-04T06:38:54.140Z,94883.00
2023-04-04T06:39:54.171Z,94883.00
2023-04-04T06:40:54.195Z,94881.00
2023-04-04T06:41:54.221Z,94881.00
2023-04-04T06:42:54.294Z,94885.00
2023-04-04T06:43:54.352Z,94881.00
2023-04-04T06:44:54.407Z,94879.00
2023-04-04T06:45:54.422Z,94885.00
2023-04-04T06:46:54.516Z,94877.00
2023-04-04T06:47:54.560Z,94887.00
2023-04-04T06:48:54.587Z,94879.00
2023-04-04T06:49:54.626Z,94877.00
2023-04-04T06:50:54.690Z,94879.00
2023-04-04T06:51:54.734Z,94877.00
2023-04-04T06:52:54.793Z,94877.00
2023-04-04T06:53:54.823Z,94875.00
2023-04-04T06:54:54.868Z,94875.00
2023-04-04T06:55:54.931Z,94875.00
2023-04-04T06:56:54.979Z,94871.00
2023-04-04T06:57:55.003Z,94871.00
2023-04-04T06:58:55.103Z,94879.00
2023-04-04T06:59:55.072Z,94867.00
2023-04-04T07:00:55.119Z,94871.00
2023-04-04T07:01:55.185Z,94871.00
2023-04-04T07:02:55.192Z,94871.00
2023-04-04T07:03:55.217Z,94869.00
2023-04-04T07:04:55.237Z,94869.00
2023-04-04T07:05:55.275Z,94867.00
2023-04-04T07:06:55.323Z,94863.00
2023-04-04T07:07:55.353Z,94867.00
2023-04-04T07:08:55.371Z,94867.00
2023-04-04T07:09:55.387Z,94871.00
2023-04-04T07:10:55.401Z,94871.00
2023-04-04T07:11:55.432Z,94867.00
2023-04-04T07:12:55.424Z,94871.00
2023-04-04T07:13:55.468Z,94871.00
2023-04-04T07:14:55.464Z,94867.00
2023-04-04T07:15:55.463Z,94867.00
2023-04-04T07:16:55.618Z,94869.00
2023-04-04T07:17:55.557Z,94867.00
2023-04-04T07:18:55.484Z,94869.00
2023-04-04T07:19:55.540Z,94865.00
2023-04-04T07:20:55.537Z,94867.00
2023-04-04T07:21:55.528Z,94863.00
2023-04-04T07:22:55.529Z,94863.00
2023-04-04T07:23:55.517Z,94867.00
2023-04-04T07:24:55.485Z,94863.00
2023-04-04T07:25:55.516Z,94863.00
2023-04-04T07:26:55.505Z,94863.00
2023-04-04T07:28:09.540Z,94863.00
2023-04-04T07:28:56.504Z,94859.00
2023-04-04T07:29:55.501Z,94863.00
2023-04-04T07:30:55.498Z,94863.00
2023-04-04T07:31:55.525Z,94865.00
2023-04-04T07:32:55.498Z,94863.00
2023-04-04T07:33:55.493Z,94863.00
2023-04-04T07:34:55.489Z,94867.00
2023-04-04T07:35:55.466Z,94865.00
2023-04-04T07:36:55.441Z,94865.00
2023-04-04T07:37:55.462Z,94865.00
2023-04-04T07:38:55.433Z,94863.00
2023-04-04T07:39:55.444Z,94865.00
2023-04-04T07:40:55.422Z,94861.00
2023-04-04T07:41:55.427Z,94863.00
2023-04-04T07:42:55.459Z,94861.00
2023-04-04T07:43:55.535Z,94863.00
2023-04-04T07:44:55.603Z,94859.00
2023-04-04T07:45:55.685Z,94859.00
2023-04-04T07:47:06.453Z,94857.00
2023-04-04T07:47:56.794Z,94857.00
2023-04-04T07:48:55.700Z,94857.00
2023-04-04T07:49:55.693Z,94863.00
2023-04-04T07:50:55.674Z,94855.00
2023-04-04T07:51:55.692Z,94859.00
2023-04-04T07:52:55.693Z,94857.00
2023-04-04T07:53:55.674Z,94855.00
2023-04-04T07:54:55.650Z,94855.00
2023-04-04T07:55:55.641Z,94857.00
2023-04-04T07:56:55.648Z,94853.00
2023-04-04T07:57:55.688Z,94850.00
2023-04-04T07:58:55.688Z,94850.00
2023-04-04T07:59:55.624Z,94850.00
2023-04-04T08:00:55.631Z,94853.00
2023-04-04T08:01:55.631Z,94848.00
2023-04-04T08:02:55.722Z,94852.00
2023-04-04T08:03:55.830Z,94850.00
2023-04-04T08:04:55.612Z,94850.00
2023-04-04T08:05:55.625Z,94846.00
2023-04-04T08:06:55.603Z,94848.00
2023-04-04T08:07:55.586Z,94842.00
2023-04-04T08:08:55.583Z,94846.00
2023-04-04T08:09:55.558Z,94842.00
2023-04-04T08:10:55.571Z,94844.00
2023-04-04T08:11:55.577Z,94844.00
2023-04-04T08:12:55.574Z,94844.00
2023-04-04T08:13:55.538Z,94844.00
2023-04-04T08:14:55.524Z,94842.00
2023-04-04T08:15:55.559Z,94842.00
2023-04-04T08:16:55.566Z,94844.00
2023-04-04T08:17:55.713Z,94840.00
2023-04-04T08:18:55.581Z,94838.00
2023-04-04T08:19:55.569Z,94840.00
2023-04-04T08:20:55.579Z,94836.00
2023-04-04T08:21:55.608Z,94830.00
2023-04-04T08:22:55.605Z,94830.00
2023-04-04T08:23:55.632Z,94830.00
2023-04-04T08:24:55.640Z,94832.00
2023-04-04T08:25:55.702Z,94834.00
2023-04-04T08:27:04.571Z,94830.00
2023-04-04T08:27:56.687Z,94830.00
2023-04-04T08:28:55.656Z,94828.00
2023-04-04T08:29:55.673Z,94830.00
2023-04-04T08:30:55.660Z,94826.00
2023-04-04T08:31:55.657Z,94820.00
2023-04-04T08:32:55.698Z,94824.00
2023-04-04T08:33:55.630Z,94822.00
2023-04-04T08:34:55.617Z,94822.00
2023-04-04T08:35:55.672Z,94816.00
2023-04-04T08:36:55.650Z,94814.00
2023-04-04T08:37:55.643Z,94814.00
2023-04-04T08:38:55.597Z,94816.00
2023-04-04T08:39:55.605Z,94812.00
2023-04-04T08:40:55.599Z,94814.00
2023-04-04T08:41:55.590Z,94810.00
2023-04-04T08:42:55.613Z,94808.00
2023-04-04T08:43:55.617Z,94805.00
2023-04-04T08:44:55.660Z,94805.00
2023-04-04T08:45:55.714Z,94805.00
2023-04-04T08:46:55.951Z,94805.00
2023-04-04T08:47:55.820Z,94803.00
2023-04-04T08:48:55.851Z,94805.00
2023-04-04T08:49:55.854Z,94806.00
2023-04-04T08:50:55.920Z,94801.00
2023-04-04T08:51:55.965Z,94805.00
2023-04-04T08:52:56.013Z,94803.00
2023-04-04T08:53:56.049Z,94805.00
2023-04-04T08:54:56.073Z,94803.00
2023-04-04T08:55:56.130Z,94803.00
2023-04-04T08:56:56.184Z,94805.00
2023-04-04T08:57:56.221Z,94803.00
2023-04-04T08:58:56.353Z,94805.00
2023-04-04T08:59:56.387Z,94799.00
2023-04-04T09:00:56.379Z,94797.00
2023-04-04T09:01:56.460Z,94797.00
2023-04-04T09:02:56.583Z,94795.00
2023-04-04T09:03:56.531Z,94793.00
2023-04-04T09:05:05.532Z,94791.00
2023-04-04T09:05:57.897Z,94791.00
2023-04-04T09:06:56.576Z,94791.00
2023-04-04T09:07:56.576Z,94789.00
2023-04-04T09:08:56.570Z,94789.00
2023-04-04T09:09:56.581Z,94787.00
2023-04-04T09:10:56.553Z,94789.00
2023-04-04T09:11:56.562Z,94787.00
2023-04-04T09:13:05.139Z,94787.00
2023-04-04T09:13:57.531Z,94785.00
2023-04-04T09:14:56.524Z,94785.00
2023-04-04T09:15:56.527Z,94779.00
2023-04-04T09:16:56.579Z,94783.00
2023-04-04T09:17:56.536Z,94783.00
2023-04-04T09:18:56.522Z,94779.00
2023-04-04T09:19:56.508Z,94777.00
2023-04-04T09:20:56.501Z,94777.00
2023-04-04T09:21:56.505Z,94777.00
2023-04-04T09:22:56.477Z,94779.00
2023-04-04T09:23:56.466Z,94783.00
2023-04-04T09:24:56.594Z,94785.00
2023-04-04T09:26:56.446Z,94787.00
2023-04-04T09:27:56.441Z,94791.00
2023-04-04T09:28:56.436Z,94791.00
2023-04-04T09:29:56.441Z,94793.00
2023-04-04T09:30:56.432Z,94787.00
2023-04-04T09:31:56.458Z,94787.00
2023-04-04T09:32:56.468Z,94783.00
2023-04-04T09:33:56.406Z,94783.00
2023-04-04T09:34:56.393Z,94779.00
2023-04-04T09:35:56.432Z,94779.00
2023-04-04T09:36:56.374Z,94779.00
2023-04-04T09:37:56.384Z,94779.00
2023-04-04T09:38:56.367Z,94779.00
2023-04-04T09:39:56.376Z,94781.00
2023-04-04T09:40:56.370Z,94775.00
2023-04-04T09:41:56.518Z,94779.00
2023-04-04T09:42:56.357Z,94775.00
2023-04-04T09:43:56.352Z,94775.00
2023-04-04T09:44:56.345Z,94773.00
2023-04-04T09:45:56.365Z,94773.00
2023-04-04T09:46:56.314Z,94773.00
2023-04-04T09:47:56.380Z,94771.00
2023-04-04T09:48:56.320Z,94773.00
2023-04-04T09:49:56.300Z,94767.00
2023-04-04T09:50:56.308Z,94769.00
2023-04-04T09:51:56.305Z,94769.00
2023-04-04T09:52:56.290Z,94767.00
2023-04-04T09:53:56.271Z,94763.00
2023-04-04T09:54:56.884Z,94763.00
2023-04-04T09:55:56.275Z,94765.00
2023-04-04T09:56:56.266Z,94763.00
2023-04-04T09:57:56.254Z,94761.00
2023-04-04T09:59:03.732Z,94757.00
2023-04-04T09:59:57.282Z,94761.00
2023-04-04T10:00:56.232Z,94757.00
2023-04-04T10:01:56.250Z,94759.00
2023-04-04T10:02:56.274Z,94759.00
2023-04-04T10:03:56.251Z,94763.00
2023-04-04T10:05:05.268Z,94755.00
2023-04-04T10:05:57.226Z,94755.00
2023-04-04T10:06:56.203Z,94753.00
2023-04-04T10:07:56.212Z,94755.00
2023-04-04T10:08:56.209Z,94755.00
2023-04-04T10:09:56.182Z,94751.00
2023-04-04T10:11:09.833Z,94753.00
2023-04-04T10:11:57.184Z,94748.00
2023-04-04T10:12:56.151Z,94750.00
2023-04-04T10:13:56.183Z,94750.00
2023-04-04T10:14:56.143Z,94744.00
2023-04-04T10:15:56.203Z,94744.00
2023-04-04T10:16:56.145Z,94744.00
2023-04-04T10:17:56.150Z,94744.00
2023-04-04T10:18:56.125Z,94746.00
2023-04-04T10:19:56.148Z,94746.00
2023-04-04T10:21:08.003Z,94744.00
2023-04-04T10:21:57.185Z,94744.00
2023-04-04T10:22:56.167Z,94746.00
2023-04-04T10:23:56.162Z,94746.00
2023-04-04T10:24:56.155Z,94746.00
2023-04-04T10:25:56.155Z,94742.00
2023-04-04T10:26:56.130Z,94740.00
2023-04-04T10:27:56.131Z,94740.00
2023-04-04T10:28:56.140Z,94742.00
2023-04-04T10:29:56.113Z,94742.00
2023-04-04T10:31:05.794Z,94738.00
2023-04-04T10:31:58.930Z,94736.00
2023-04-04T10:32:56.105Z,94736.00
2023-04-04T10:33:56.092Z,94732.00
2023-04-04T10:34:56.087Z,94734.00
2023-04-04T10:35:56.089Z,94734.00
2023-04-04T10:36:56.174Z,94734.00
2023-04-04T10:37:56.095Z,94732.00
2023-04-04T10:38:56.071Z,94732.00
2023-04-04T10:39:56.084Z,94732.00
2023-04-04T10:40:56.089Z,94732.00
2023-04-04T10:41:56.082Z,94728.00
2023-04-04T10:42:56.046Z,94730.00
2023-04-04T10:43:56.030Z,94730.00
2023-04-04T10:44:56.039Z,94726.00
2023-04-04T10:45:56.033Z,94728.00
2023-04-04T10:46:56.078Z,94728.00
2023-04-04T10:47:56.067Z,94724.00
2023-04-04T10:48:56.052Z,94726.00
2023-04-04T10:49:56.043Z,94726.00
2023-04-04T10:50:56.000Z,94722.00
2023-04-04T10:51:57.184Z,94724.00
2023-04-04T10:52:55.992Z,94726.00
2023-04-04T10:53:55.986Z,94726.00
2023-04-04T10:54:55.950Z,94726.00
2023-04-04T10:55:55.974Z,94722.00
2023-04-04T10:56:56.014Z,94722.00
2023-04-04T10:57:55.945Z,94726.00
2023-04-04T10:58:58.056Z,94722.00
2023-04-04T10:59:55.938Z,94720.00
2023-04-04T11:00:55.948Z,94720.00
2023-04-04T11:01:55.902Z,94720.00
2023-04-04T11:02:55.997Z,94722.00
2023-04-04T11:03:55.914Z,94716.00
2023-04-04T11:04:55.905Z,94718.00
2023-04-04T11:05:55.900Z,94714.00
2023-04-04T11:06:55.869Z,94712.00
2023-04-04T11:08:55.863Z,94708.00
2023-04-04T11:09:55.895Z,94706.00
2023-04-04T11:10:55.861Z,94714.00
2023-04-04T11:11:55.839Z,94706.00
2023-04-04T11:13:09.369Z,94706.00
2023-04-04T11:13:56.831Z,94704.00
2023-04-04T11:14:55.840Z,94701.00
2023-04-04T11:15:55.841Z,94703.00
2023-04-04T11:16:55.847Z,94701.00
2023-04-04T11:17:55.845Z,94699.00
2023-04-04T11:18:55.806Z,94701.00
2023-04-04T11:19:55.821Z,94701.00
2023-04-04T11:20:55.779Z,94697.00
2023-04-04T11:21:55.780Z,94695.00
2023-04-04T11:22:55.788Z,94699.00
2023-04-04T11:23:55.795Z,94699.00
2023-04-04T11:24:56.770Z,94697.00
2023-04-04T11:25:55.754Z,94697.00
2023-04-04T11:26:55.758Z,94691.00
2023-04-04T11:27:55.796Z,94691.00
2023-04-04T11:28:55.856Z,94689.00
2023-04-04T11:29:55.863Z,94691.00
2023-04-04T11:30:55.878Z,94689.00
2023-04-04T11:31:56.023Z,94689.00
2023-04-04T11:33:05.971Z,94689.00
2023-04-04T11:33:56.960Z,94691.00
2023-04-04T11:34:55.968Z,94691.00
2023-04-04T11:35:56.001Z,94693.00
2023-04-04T11:36:55.932Z,94691.00
2023-04-04T11:37:55.929Z,94691.00
2023-04-04T11:38:55.979Z,94689.00
2023-04-04T11:39:55.933Z,94689.00
2023-04-04T11:40:55.906Z,94689.00
2023-04-04T11:41:55.908Z,94689.00
2023-04-04T11:42:55.915Z,94691.00
2023-04-04T11:43:55.910Z,94687.00
2023-04-04T11:44:55.895Z,94687.00
2023-04-04T11:45:55.888Z,94687.00
2023-04-04T11:46:55.899Z,94687.00